sensor_id;sensor_type;location;lat;lon;timestamp;temperature;humidity
72905;DHT22;61048;52.162;4.516;2022-09-02T00:00:34;22.60;45.20
72905;DHT22;61048;52.162;4.516;2022-09-02T00:03:01;22.50;45.30
72905;DHT22;61048;52.162;4.516;2022-09-02T00:05:30;22.50;45.30
72905;DHT22;61048;52.162;4.516;2022-09-02T00:07:57;22.50;45.30
72905;DHT22;61048;52.162;4.516;2022-09-02T00:10:24;22.50;45.30
72905;DHT22;61048;52.162;4.516;2022-09-02T00:12:51;22.50;45.30
72905;DHT22;61048;52.162;4.516;2022-09-02T00:15:18;22.60;45.40
72905;DHT22;61048;52.162;4.516;2022-09-02T00:17:45;22.50;45.40
72905;DHT22;61048;52.162;4.516;2022-09-02T00:20:12;22.50;45.40
72905;DHT22;61048;52.162;4.516;2022-09-02T00:22:40;22.50;45.40
72905;DHT22;61048;52.162;4.516;2022-09-02T00:25:07;22.50;45.30
72905;DHT22;61048;52.162;4.516;2022-09-02T00:27:34;22.50;45.20
72905;DHT22;61048;52.162;4.516;2022-09-02T00:30:02;22.50;45.30
72905;DHT22;61048;52.162;4.516;2022-09-02T00:32:29;22.50;45.40
72905;DHT22;61048;52.162;4.516;2022-09-02T00:34:56;22.50;45.40
72905;DHT22;61048;52.162;4.516;2022-09-02T00:37:23;22.50;45.40
72905;DHT22;61048;52.162;4.516;2022-09-02T00:39:52;22.40;45.40
72905;DHT22;61048;52.162;4.516;2022-09-02T00:42:20;22.40;45.40
72905;DHT22;61048;52.162;4.516;2022-09-02T00:44:47;22.40;45.40
72905;DHT22;61048;52.162;4.516;2022-09-02T00:47:14;22.40;45.40
72905;DHT22;61048;52.162;4.516;2022-09-02T00:49:44;22.40;45.40
72905;DHT22;61048;52.162;4.516;2022-09-02T00:52:15;22.40;45.40
72905;DHT22;61048;52.162;4.516;2022-09-02T00:54:44;22.40;45.50
72905;DHT22;61048;52.162;4.516;2022-09-02T00:57:15;22.40;45.40
72905;DHT22;61048;52.162;4.516;2022-09-02T00:59:50;22.40;45.50
72905;DHT22;61048;52.162;4.516;2022-09-02T01:02:20;22.40;45.50
72905;DHT22;61048;52.162;4.516;2022-09-02T01:04:48;22.40;45.50
72905;DHT22;61048;52.162;4.516;2022-09-02T01:07:15;22.30;45.50
72905;DHT22;61048;52.162;4.516;2022-09-02T01:09:42;22.40;45.60
72905;DHT22;61048;52.162;4.516;2022-09-02T01:12:09;22.30;45.50
72905;DHT22;61048;52.162;4.516;2022-09-02T01:14:39;22.30;45.50
72905;DHT22;61048;52.162;4.516;2022-09-02T01:17:07;22.30;45.60
72905;DHT22;61048;52.162;4.516;2022-09-02T01:19:37;22.30;45.50
72905;DHT22;61048;52.162;4.516;2022-09-02T01:22:14;22.30;45.50
72905;DHT22;61048;52.162;4.516;2022-09-02T01:24:41;22.30;45.60
72905;DHT22;61048;52.162;4.516;2022-09-02T01:27:08;22.30;45.50
72905;DHT22;61048;52.162;4.516;2022-09-02T01:29:35;22.30;45.60
72905;DHT22;61048;52.162;4.516;2022-09-02T01:32:02;22.30;45.60
72905;DHT22;61048;52.162;4.516;2022-09-02T01:34:29;22.30;45.60
72905;DHT22;61048;52.162;4.516;2022-09-02T01:36:56;22.20;45.50
72905;DHT22;61048;52.162;4.516;2022-09-02T01:39:24;22.20;45.50
72905;DHT22;61048;52.162;4.516;2022-09-02T01:41:51;22.20;45.60
72905;DHT22;61048;52.162;4.516;2022-09-02T01:44:18;22.20;45.60
72905;DHT22;61048;52.162;4.516;2022-09-02T01:46:45;22.20;45.70
72905;DHT22;61048;52.162;4.516;2022-09-02T01:49:12;22.20;45.70
72905;DHT22;61048;52.162;4.516;2022-09-02T01:51:38;22.20;45.70
72905;DHT22;61048;52.162;4.516;2022-09-02T01:54:06;22.20;45.70
72905;DHT22;61048;52.162;4.516;2022-09-02T01:56:34;22.20;45.80
72905;DHT22;61048;52.162;4.516;2022-09-02T01:59:01;22.20;45.70
72905;DHT22;61048;52.162;4.516;2022-09-02T02:01:28;22.20;45.70
72905;DHT22;61048;52.162;4.516;2022-09-02T02:03:55;22.20;45.70
72905;DHT22;61048;52.162;4.516;2022-09-02T02:06:22;22.20;45.70
72905;DHT22;61048;52.162;4.516;2022-09-02T02:08:49;22.10;45.70
72905;DHT22;61048;52.162;4.516;2022-09-02T02:11:18;22.10;45.70
72905;DHT22;61048;52.162;4.516;2022-09-02T02:13:47;22.10;45.70
72905;DHT22;61048;52.162;4.516;2022-09-02T02:16:14;22.10;45.80
72905;DHT22;61048;52.162;4.516;2022-09-02T02:18:41;22.10;45.70
72905;DHT22;61048;52.162;4.516;2022-09-02T02:21:08;22.10;45.70
72905;DHT22;61048;52.162;4.516;2022-09-02T02:23:35;22.10;45.70
72905;DHT22;61048;52.162;4.516;2022-09-02T02:26:02;22.10;45.70
72905;DHT22;61048;52.162;4.516;2022-09-02T02:28:29;22.10;45.80
72905;DHT22;61048;52.162;4.516;2022-09-02T02:30:57;22.10;45.80
72905;DHT22;61048;52.162;4.516;2022-09-02T02:33:24;22.10;45.80
72905;DHT22;61048;52.162;4.516;2022-09-02T02:35:51;22.00;45.80
72905;DHT22;61048;52.162;4.516;2022-09-02T02:38:18;22.10;45.80
72905;DHT22;61048;52.162;4.516;2022-09-02T02:40:45;22.00;45.80
72905;DHT22;61048;52.162;4.516;2022-09-02T02:43:12;22.00;45.90
72905;DHT22;61048;52.162;4.516;2022-09-02T02:45:38;22.00;45.80
72905;DHT22;61048;52.162;4.516;2022-09-02T02:48:07;22.00;45.80
72905;DHT22;61048;52.162;4.516;2022-09-02T02:50:33;22.00;45.80
72905;DHT22;61048;52.162;4.516;2022-09-02T02:53:00;22.00;45.80
72905;DHT22;61048;52.162;4.516;2022-09-02T02:55:27;22.00;45.70
72905;DHT22;61048;52.162;4.516;2022-09-02T02:57:54;22.00;45.80
72905;DHT22;61048;52.162;4.516;2022-09-02T03:00:23;22.00;45.80
72905;DHT22;61048;52.162;4.516;2022-09-02T03:02:54;22.00;45.80
72905;DHT22;61048;52.162;4.516;2022-09-02T03:05:23;22.00;45.80
72905;DHT22;61048;52.162;4.516;2022-09-02T03:07:50;22.00;45.80
72905;DHT22;61048;52.162;4.516;2022-09-02T03:10:17;21.90;45.90
72905;DHT22;61048;52.162;4.516;2022-09-02T03:12:45;21.90;45.90
72905;DHT22;61048;52.162;4.516;2022-09-02T03:15:14;21.90;45.90
72905;DHT22;61048;52.162;4.516;2022-09-02T03:17:42;21.90;45.90
72905;DHT22;61048;52.162;4.516;2022-09-02T03:20:10;21.90;45.90
72905;DHT22;61048;52.162;4.516;2022-09-02T03:22:38;21.90;45.90
72905;DHT22;61048;52.162;4.516;2022-09-02T03:25:07;21.90;46.00
72905;DHT22;61048;52.162;4.516;2022-09-02T03:27:36;21.90;46.00
72905;DHT22;61048;52.162;4.516;2022-09-02T03:30:05;21.90;46.00
72905;DHT22;61048;52.162;4.516;2022-09-02T03:32:32;21.90;46.10
72905;DHT22;61048;52.162;4.516;2022-09-02T03:35:00;21.90;46.00
72905;DHT22;61048;52.162;4.516;2022-09-02T03:37:27;21.90;46.00
72905;DHT22;61048;52.162;4.516;2022-09-02T03:39:56;21.90;46.10
72905;DHT22;61048;52.162;4.516;2022-09-02T03:42:22;21.90;46.00
72905;DHT22;61048;52.162;4.516;2022-09-02T03:44:49;21.90;46.00
72905;DHT22;61048;52.162;4.516;2022-09-02T03:47:16;21.80;46.00
72905;DHT22;61048;52.162;4.516;2022-09-02T03:49:44;21.80;46.10
72905;DHT22;61048;52.162;4.516;2022-09-02T03:52:11;21.80;46.10
72905;DHT22;61048;52.162;4.516;2022-09-02T03:54:38;21.80;46.10
72905;DHT22;61048;52.162;4.516;2022-09-02T03:57:06;21.80;46.10
72905;DHT22;61048;52.162;4.516;2022-09-02T03:59:33;21.80;46.10
72905;DHT22;61048;52.162;4.516;2022-09-02T04:02:00;21.80;46.00
72905;DHT22;61048;52.162;4.516;2022-09-02T04:04:27;21.80;46.10
72905;DHT22;61048;52.162;4.516;2022-09-02T04:06:55;21.80;46.10
72905;DHT22;61048;52.162;4.516;2022-09-02T04:09:22;21.80;46.10
72905;DHT22;61048;52.162;4.516;2022-09-02T04:11:49;21.80;46.20
72905;DHT22;61048;52.162;4.516;2022-09-02T04:14:18;21.70;46.20
72905;DHT22;61048;52.162;4.516;2022-09-02T04:16:45;21.80;46.20
72905;DHT22;61048;52.162;4.516;2022-09-02T04:19:12;21.80;46.20
72905;DHT22;61048;52.162;4.516;2022-09-02T04:21:40;21.80;46.20
72905;DHT22;61048;52.162;4.516;2022-09-02T04:24:08;21.70;46.30
72905;DHT22;61048;52.162;4.516;2022-09-02T04:26:35;21.70;46.30
72905;DHT22;61048;52.162;4.516;2022-09-02T04:29:03;21.70;46.30
72905;DHT22;61048;52.162;4.516;2022-09-02T04:31:32;21.70;46.30
72905;DHT22;61048;52.162;4.516;2022-09-02T04:33:59;21.70;46.30
72905;DHT22;61048;52.162;4.516;2022-09-02T04:36:27;21.70;46.30
72905;DHT22;61048;52.162;4.516;2022-09-02T04:38:54;21.70;46.30
72905;DHT22;61048;52.162;4.516;2022-09-02T04:41:25;21.70;46.30
72905;DHT22;61048;52.162;4.516;2022-09-02T04:43:54;21.70;46.20
72905;DHT22;61048;52.162;4.516;2022-09-02T04:46:23;21.70;46.20
72905;DHT22;61048;52.162;4.516;2022-09-02T04:48:51;21.60;46.10
72905;DHT22;61048;52.162;4.516;2022-09-02T04:51:20;21.60;46.20
72905;DHT22;61048;52.162;4.516;2022-09-02T04:53:48;21.60;46.10
72905;DHT22;61048;52.162;4.516;2022-09-02T04:56:18;21.60;46.10
72905;DHT22;61048;52.162;4.516;2022-09-02T04:58:46;21.60;46.00
72905;DHT22;61048;52.162;4.516;2022-09-02T05:01:16;21.60;45.90
72905;DHT22;61048;52.162;4.516;2022-09-02T05:03:46;21.60;46.10
72905;DHT22;61048;52.162;4.516;2022-09-02T05:06:16;21.60;47.10
72905;DHT22;61048;52.162;4.516;2022-09-02T05:08:44;21.60;48.20
72905;DHT22;61048;52.162;4.516;2022-09-02T05:11:14;21.70;49.10
72905;DHT22;61048;52.162;4.516;2022-09-02T05:13:43;21.70;48.90
72905;DHT22;61048;52.162;4.516;2022-09-02T05:16:14;21.70;48.70
72905;DHT22;61048;52.162;4.516;2022-09-02T05:18:41;21.70;48.60
72905;DHT22;61048;52.162;4.516;2022-09-02T05:21:08;21.70;48.60
72905;DHT22;61048;52.162;4.516;2022-09-02T05:23:36;21.70;48.60
72905;DHT22;61048;52.162;4.516;2022-09-02T05:26:03;21.70;48.60
72905;DHT22;61048;52.162;4.516;2022-09-02T05:28:30;21.70;48.50
72905;DHT22;61048;52.162;4.516;2022-09-02T05:31:03;21.70;47.90
72905;DHT22;61048;52.162;4.516;2022-09-02T05:33:30;21.60;47.50
72905;DHT22;61048;52.162;4.516;2022-09-02T05:35:57;21.60;47.30
72905;DHT22;61048;52.162;4.516;2022-09-02T05:38:24;21.60;47.10
72905;DHT22;61048;52.162;4.516;2022-09-02T05:40:53;21.60;46.90
72905;DHT22;61048;52.162;4.516;2022-09-02T05:43:20;21.60;47.90
72905;DHT22;61048;52.162;4.516;2022-09-02T05:45:47;21.70;48.50
72905;DHT22;61048;52.162;4.516;2022-09-02T05:48:14;21.80;49.20
72905;DHT22;61048;52.162;4.516;2022-09-02T05:51:02;21.80;49.00
72905;DHT22;61048;52.162;4.516;2022-09-02T05:53:29;21.90;48.70
72905;DHT22;61048;52.162;4.516;2022-09-02T05:55:57;21.90;48.30
72905;DHT22;61048;52.162;4.516;2022-09-02T05:58:24;22.00;47.80
72905;DHT22;61048;52.162;4.516;2022-09-02T06:00:51;22.00;47.50
72905;DHT22;61048;52.162;4.516;2022-09-02T06:03:18;22.00;47.10
72905;DHT22;61048;52.162;4.516;2022-09-02T06:05:53;22.00;47.10
72905;DHT22;61048;52.162;4.516;2022-09-02T06:08:20;22.00;46.70
